Time;durP1;ratioP1;P1;durP2;ratioP2;P2;SDS_P1;SDS_P2;PMS_P1;PMS_P2;Temp;Humidity;BMP_temperature;BMP_pressure;BME280_temperature;BME280_humidity;BME280_pressure;Samples;Min_cycle;Max_cycle;Signal;HPM_P1;HPM_P2
2023/07/01 00:00:02;;;;;;;21.00;11.00;;;;;;;;;;106858;1276;24357;-83
2023/07/01 00:02:31;;;;;;;18.00;10.80;;;;;;;;;;106932;1276;22589;-85
2023/07/01 00:05:09;;;;;;;20.10;11.10;;;;;;;;;;106895;1259;24402;-82
2023/07/01 00:08:02;;;;;;;21.20;10.60;;;;;;;;;;106928;1269;24233;-83
2023/07/01 00:10:38;;;;;;;17.50;11.60;;;;;;;;;;106973;1276;22644;-83
2023/07/01 00:13:05;;;;;;;17.70;11.00;;;;;;;;;;106903;1276;24442;-85
2023/07/01 00:15:42;;;;;;;20.70;11.90;;;;;;;;;;106967;1276;23477;-82
2023/07/01 00:18:11;;;;;;;20.60;11.70;;;;;;;;;;106973;1260;22583;-82
2023/07/01 00:20:43;;;;;;;21.80;11.50;;;;;;;;;;106947;1276;23096;-84
2023/07/01 00:23:15;;;;;;;19.60;11.50;;;;;;;;;;106944;1276;23253;-85
2023/07/01 00:26:05;;;;;;;17.40;11.20;;;;;;;;;;106977;1276;23716;-82
2023/07/01 00:28:55;;;;;;;19.80;10.90;;;;;;;;;;106917;1276;25455;-88
2023/07/01 00:31:35;;;;;;;17.70;11.80;;;;;;;;;;106918;1276;22998;-81
2023/07/01 00:34:09;;;;;;;21.40;10.30;;;;;;;;;;106948;1276;22775;-84
2023/07/01 00:36:37;;;;;;;17.60;10.90;;;;;;;;;;106955;1276;25450;-86
2023/07/01 00:39:29;;;;;;;18.20;11.10;;;;;;;;;;106974;1258;24249;-81
2023/07/01 00:41:56;;;;;;;20.30;11.80;;;;;;;;;;106954;1270;24232;-85
2023/07/01 00:44:36;;;;;;;20.70;11.70;;;;;;;;;;106935;1276;22546;-83
2023/07/01 00:47:03;;;;;;;19.60;11.20;;;;;;;;;;106978;1276;22496;-83
2023/07/01 00:49:30;;;;;;;19.00;11.20;;;;;;;;;;106967;1259;26493;-83
2023/07/01 00:52:06;;;;;;;17.90;11.10;;;;;;;;;;106908;1275;24400;-86
2023/07/01 00:54:37;;;;;;;18.80;10.70;;;;;;;;;;106944;1276;24232;-87
2023/07/01 00:57:06;;;;;;;20.90;10.80;;;;;;;;;;106891;1276;25017;-84
2023/07/01 00:59:44;;;;;;;19.40;11.10;;;;;;;;;;106951;1259;24190;-88
2023/07/01 01:02:19;;;;;;;17.20;10.00;;;;;;;;;;106987;1276;25543;-86
2023/07/01 01:05:10;;;;;;;16.90;10.10;;;;;;;;;;106977;1276;24237;-84
2023/07/01 01:07:58;;;;;;;21.40;11.40;;;;;;;;;;106990;1276;22532;-83
2023/07/01 01:10:25;;;;;;;20.80;12.60;;;;;;;;;;106962;1259;22541;-86
2023/07/01 01:13:03;;;;;;;20.90;11.50;;;;;;;;;;106939;1276;24269;-85
2023/07/01 01:15:31;;;;;;;17.30;10.60;;;;;;;;;;106942;1276;25227;-81
2023/07/01 01:18:04;;;;;;;18.50;10.70;;;;;;;;;;106963;1276;22527;-81
2023/07/01 01:20:51;;;;;;;17.50;10.40;;;;;;;;;;106948;1257;22517;-83
2023/07/01 01:23:28;;;;;;;19.80;11.10;;;;;;;;;;106955;1276;25354;-81
2023/07/01 01:26:20;;;;;;;19.10;11.40;;;;;;;;;;106937;1276;22629;-88
2023/07/01 01:28:56;;;;;;;20.70;11.80;;;;;;;;;;106957;1253;24080;-85
2023/07/01 01:31:31;;;;;;;20.10;12.20;;;;;;;;;;106939;1276;22522;-85
2023/07/01 01:33:58;;;;;;;20.90;12.60;;;;;;;;;;106943;1276;25269;-81
2023/07/01 01:36:27;;;;;;;20.20;11.60;;;;;;;;;;106902;1253;24193;-88
2023/07/01 01:39:05;;;;;;;18.30;11.10;;;;;;;;;;106906;1276;22539;-81
2023/07/01 01:41:32;;;;;;;21.80;11.50;;;;;;;;;;106817;1262;25357;-86
2023/07/01 01:44:22;;;;;;;19.60;11.30;;;;;;;;;;106925;1276;22790;-84
2023/07/01 01:46:49;;;;;;;18.30;11.30;;;;;;;;;;106940;1276;25503;-81
2023/07/01 01:49:16;;;;;;;20.10;11.30;;;;;;;;;;106953;1276;22532;-82
2023/07/01 01:51:49;;;;;;;16.50;10.60;;;;;;;;;;106835;1262;25464;-82
2023/07/01 01:54:18;;;;;;;22.60;12.10;;;;;;;;;;106929;1276;23896;-87
2023/07/01 01:56:51;;;;;;;19.70;11.60;;;;;;;;;;106955;1276;22524;-81
2023/07/01 01:59:20;;;;;;;19.90;12.40;;;;;;;;;;106848;1276;22523;-82
2023/07/01 02:01:47;;;;;;;20.50;12.20;;;;;;;;;;106966;1276;25353;-80
2023/07/01 02:04:14;;;;;;;22.90;12.40;;;;;;;;;;106928;1276;22479;-85
2023/07/01 02:06:47;;;;;;;23.50;11.90;;;;;;;;;;106986;1276;25420;-82
2023/07/01 02:09:23;;;;;;;19.10;11.30;;;;;;;;;;106952;1275;22665;-85
2023/07/01 02:11:52;;;;;;;19.30;11.00;;;;;;;;;;106969;1259;22516;-82
2023/07/01 02:14:25;;;;;;;19.80;10.90;;;;;;;;;;106892;1275;26625;-81
2023/07/01 02:16:54;;;;;;;17.40;10.70;;;;;;;;;;107002;1270;22540;-81
2023/07/01 02:19:24;;;;;;;21.00;10.60;;;;;;;;;;106986;1275;25501;-83
2023/07/01 02:21:51;;;;;;;17.00;10.50;;;;;;;;;;106962;1257;22520;-81
2023/07/01 02:24:18;;;;;;;23.40;11.20;;;;;;;;;;106974;1275;22536;-80
2023/07/01 02:26:50;;;;;;;22.10;11.70;;;;;;;;;;106922;1275;22534;-86
2023/07/01 02:29:19;;;;;;;19.10;10.50;;;;;;;;;;106939;1275;22488;-87
2023/07/01 02:32:06;;;;;;;18.80;10.80;;;;;;;;;;107146;1256;22552;-87
2023/07/01 02:35:02;;;;;;;;;;;;;;;;;;;;;
2023/07/01 02:37:48;;;;;;;21.50;11.30;;;;;;;;;;107089;1275;22782;-80
2023/07/01 02:40:35;;;;;;;19.70;10.70;;;;;;;;;;106972;1275;23892;-81
2023/07/01 02:43:08;;;;;;;20.70;11.30;;;;;;;;;;106978;1265;25269;-85
2023/07/01 02:45:40;;;;;;;19.70;11.60;;;;;;;;;;106997;1275;22527;-82
2023/07/01 02:48:09;;;;;;;21.00;11.80;;;;;;;;;;106972;1275;22641;-81
2023/07/01 02:50:43;;;;;;;19.40;11.00;;;;;;;;;;107086;1275;25338;-86
2023/07/01 02:53:10;;;;;;;21.90;11.60;;;;;;;;;;106994;1259;24183;-83
2023/07/01 02:55:42;;;;;;;22.70;11.00;;;;;;;;;;107127;1275;25287;-82
2023/07/01 02:58:22;;;;;;;19.60;10.80;;;;;;;;;;106945;1275;22602;-81
2023/07/01 03:00:57;;;;;;;17.50;9.90;;;;;;;;;;106944;1275;22606;-85
2023/07/01 03:03:37;;;;;;;18.70;11.30;;;;;;;;;;107125;1275;25363;-85
2023/07/01 03:06:19;;;;;;;;;;;;;;;;;;;;;
2023/07/01 03:08:49;;;;;;;23.50;12.20;;;;;;;;;;106995;1275;25389;-81
2023/07/01 03:11:19;;;;;;;24.70;12.10;;;;;;;;;;106772;1275;22530;-80
2023/07/01 03:13:46;;;;;;;22.70;11.80;;;;;;;;;;106890;1261;25258;-84
2023/07/01 03:16:13;;;;;;;22.60;12.00;;;;;;;;;;106944;1275;25275;-84
2023/07/01 03:18:43;;;;;;;21.60;12.20;;;;;;;;;;106982;1275;22520;-79
2023/07/01 03:21:13;;;;;;;20.20;12.20;;;;;;;;;;106955;1275;24189;-86
2023/07/01 03:23:43;;;;;;;22.30;12.70;;;;;;;;;;106980;1257;22647;-81
2023/07/01 03:26:12;;;;;;;23.20;12.70;;;;;;;;;;106951;1275;25720;-79
2023/07/01 03:28:39;;;;;;;23.50;13.10;;;;;;;;;;106900;1275;22565;-80
2023/07/01 03:31:06;;;;;;;23.70;12.90;;;;;;;;;;106968;1275;22520;-80
2023/07/01 03:33:36;;;;;;;23.10;13.00;;;;;;;;;;106992;1256;26478;-80
2023/07/01 03:36:18;;;;;;;23.50;13.60;;;;;;;;;;106894;1276;22613;-81
2023/07/01 03:38:45;;;;;;;26.70;13.40;;;;;;;;;;106915;1276;24191;-85
2023/07/01 03:41:12;;;;;;;21.00;13.00;;;;;;;;;;106964;1276;22510;-83
2023/07/01 03:43:39;;;;;;;25.30;14.00;;;;;;;;;;106954;1257;22521;-82
2023/07/01 03:46:09;;;;;;;23.30;14.10;;;;;;;;;;106968;1276;24176;-82
2023/07/01 03:48:57;;;;;;;25.10;13.40;;;;;;;;;;106936;1276;24222;-82
2023/07/01 03:51:23;;;;;;;24.60;13.70;;;;;;;;;;106945;1273;22648;-84
2023/07/01 03:53:59;;;;;;;24.10;14.10;;;;;;;;;;106947;1276;25318;-80
2023/07/01 03:57:06;;;;;;;24.70;14.10;;;;;;;;;;106929;1276;24344;-86
2023/07/01 03:59:33;;;;;;;24.90;14.40;;;;;;;;;;106902;1276;25503;-83
2023/07/01 04:02:00;;;;;;;25.80;15.10;;;;;;;;;;107001;1265;25354;-80
2023/07/01 04:04:27;;;;;;;29.00;16.10;;;;;;;;;;106952;1259;24411;-85
2023/07/01 04:06:56;;;;;;;28.60;16.50;;;;;;;;;;106904;1276;24279;-80
2023/07/01 04:09:23;;;;;;;24.80;15.10;;;;;;;;;;106891;1276;24190;-84
2023/07/01 04:11:52;;;;;;;25.40;15.20;;;;;;;;;;106923;1254;22486;-79
2023/07/01 04:14:32;;;;;;;23.70;13.40;;;;;;;;;;106942;1259;25357;-83
2023/07/01 04:17:00;;;;;;;24.30;13.40;;;;;;;;;;106947;1276;25573;-80
2023/07/01 04:19:27;;;;;;;22.30;13.40;;;;;;;;;;106948;1276;24216;-79
2023/07/01 04:22:04;;;;;;;22.50;12.90;;;;;;;;;;106919;1276;22790;-84
2023/07/01 04:24:55;;;;;;;24.70;13.80;;;;;;;;;;106952;1259;24718;-80
2023/07/01 04:27:21;;;;;;;22.80;12.50;;;;;;;;;;106907;1268;23894;-81
2023/07/01 04:29:47;;;;;;;21.90;12.40;;;;;;;;;;106899;1276;25346;-79
2023/07/01 04:32:14;;;;;;;20.80;12.00;;;;;;;;;;106934;1276;22534;-84
2023/07/01 04:34:44;;;;;;;21.40;11.70;;;;;;;;;;106867;1256;22544;-80
2023/07/01 04:37:14;;;;;;;23.20;12.30;;;;;;;;;;106901;1276;25180;-80
2023/07/01 04:39:43;;;;;;;20.20;11.80;;;;;;;;;;106920;1276;25357;-80
2023/07/01 04:42:09;;;;;;;23.90;12.80;;;;;;;;;;106919;1276;22597;-82
2023/07/01 04:44:39;;;;;;;21.30;11.60;;;;;;;;;;106960;1276;24180;-86
2023/07/01 04:47:13;;;;;;;21.50;11.50;;;;;;;;;;106875;1276;25354;-80
2023/07/01 04:49:41;;;;;;;19.80;11.60;;;;;;;;;;106872;1276;22629;-80
2023/07/01 04:52:15;;;;;;;21.40;11.00;;;;;;;;;;106913;1276;23095;-80
2023/07/01 04:54:48;;;;;;;18.60;10.50;;;;;;;;;;106930;1253;22540;-82
2023/07/01 04:57:15;;;;;;;20.70;10.90;;;;;;;;;;106926;1275;25348;-80
2023/07/01 04:59:42;;;;;;;19.80;11.20;;;;;;;;;;106882;1276;22997;-80
2023/07/01 05:02:24;;;;;;;20.60;12.10;;;;;;;;;;106915;1276;22491;-86
2023/07/01 05:05:05;;;;;;;20.50;12.00;;;;;;;;;;106938;1253;22536;-82
2023/07/01 05:07:32;;;;;;;21.90;12.40;;;;;;;;;;106935;1276;25213;-81
2023/07/01 05:09:59;;;;;;;21.50;12.00;;;;;;;;;;106928;1276;24043;-84
2023/07/01 05:12:33;;;;;;;23.50;12.20;;;;;;;;;;106909;1276;22531;-82
2023/07/01 05:15:10;;;;;;;20.90;11.60;;;;;;;;;;106889;1253;24196;-87
2023/07/01 05:17:41;;;;;;;22.60;13.00;;;;;;;;;;106918;1253;24350;-80
2023/07/01 05:20:08;;;;;;;21.70;11.00;;;;;;;;;;106937;1276;22520;-86
2023/07/01 05:22:36;;;;;;;21.90;11.90;;;;;;;;;;106918;1274;25234;-82
2023/07/01 05:25:06;;;;;;;23.70;12.70;;;;;;;;;;106889;1276;24200;-79
2023/07/01 05:27:33;;;;;;;21.60;12.20;;;;;;;;;;106912;1257;25210;-81
2023/07/01 05:30:00;;;;;;;21.90;12.50;;;;;;;;;;106892;1276;24266;-85
2023/07/01 05:32:34;;;;;;;20.70;11.90;;;;;;;;;;106908;1276;22523;-85
2023/07/01 05:35:02;;;;;;;22.80;12.00;;;;;;;;;;106930;1276;22520;-82
2023/07/01 05:37:29;;;;;;;23.30;11.50;;;;;;;;;;106896;1255;25322;-82
2023/07/01 05:39:56;;;;;;;19.70;11.50;;;;;;;;;;106930;1276;22531;-86
2023/07/01 05:42:23;;;;;;;21.10;11.00;;;;;;;;;;106885;1276;22527;-80
2023/07/01 05:44:57;;;;;;;18.40;10.40;;;;;;;;;;106934;1276;24335;-83
2023/07/01 05:47:37;;;;;;;19.00;11.50;;;;;;;;;;106946;1258;25314;-82
2023/07/01 05:50:04;;;;;;;20.10;10.90;;;;;;;;;;106963;1276;22524;-84
2023/07/01 05:52:31;;;;;;;21.80;11.70;;;;;;;;;;106910;1276;22659;-80
2023/07/01 05:54:58;;;;;;;20.30;11.20;;;;;;;;;;106901;1276;22538;-86
2023/07/01 05:57:25;;;;;;;23.70;11.60;;;;;;;;;;106928;1259;22532;-82
2023/07/01 05:59:52;;;;;;;20.50;9.90;;;;;;;;;;106965;1276;22556;-84
2023/07/01 06:02:18;;;;;;;21.80;11.30;;;;;;;;;;106939;1276;22537;-81
2023/07/01 06:04:45;;;;;;;20.80;12.00;;;;;;;;;;106924;1276;25288;-81
2023/07/01 06:07:20;;;;;;;23.00;11.50;;;;;;;;;;106886;1276;24190;-81
2023/07/01 06:09:48;;;;;;;19.90;11.60;;;;;;;;;;106938;1276;24225;-80
2023/07/01 06:12:14;;;;;;;21.10;12.10;;;;;;;;;;106869;1276;22520;-84
2023/07/01 06:14:41;;;;;;;24.00;11.90;;;;;;;;;;106963;1276;22523;-81
2023/07/01 06:17:08;;;;;;;21.20;11.00;;;;;;;;;;106865;1259;22998;-86
2023/07/01 06:19:36;;;;;;;21.00;11.40;;;;;;;;;;106936;1276;22523;-83
2023/07/01 06:22:03;;;;;;;22.50;12.20;;;;;;;;;;106874;1276;25244;-80
2023/07/01 06:24:30;;;;;;;24.40;11.70;;;;;;;;;;106926;1276;22662;-84
2023/07/01 06:26:56;;;;;;;20.10;11.30;;;;;;;;;;106900;1261;22642;-86
2023/07/01 06:29:24;;;;;;;21.00;11.20;;;;;;;;;;106913;1276;22530;-83
2023/07/01 06:31:50;;;;;;;21.50;11.80;;;;;;;;;;106925;1276;22513;-85
2023/07/01 06:34:30;;;;;;;;;;;;;;;;;;;;;
2023/07/01 06:37:18;;;;;;;19.80;11.30;;;;;;;;;;106935;1257;22523;-85
2023/07/01 06:40:05;;;;;;;22.00;11.40;;;;;;;;;;106913;1276;25405;-82
2023/07/01 06:42:32;;;;;;;20.10;10.60;;;;;;;;;;106966;1276;25312;-79
2023/07/01 06:44:58;;;;;;;20.00;10.80;;;;;;;;;;106910;1276;22647;-79
2023/07/01 06:47:47;;;;;;;20.30;11.00;;;;;;;;;;106948;1257;22522;-87
2023/07/01 06:50:13;;;;;;;21.80;11.40;;;;;;;;;;106862;1276;22534;-81
2023/07/01 06:52:47;;;;;;;18.50;10.80;;;;;;;;;;106892;1276;22734;-83
2023/07/01 06:55:14;;;;;;;19.00;10.50;;;;;;;;;;106882;1276;25288;-82
2023/07/01 06:57:44;;;;;;;19.40;10.70;;;;;;;;;;106940;1276;22528;-81
2023/07/01 07:00:15;;;;;;;17.90;10.70;;;;;;;;;;106905;1276;22526;-81
2023/07/01 07:03:00;;;;;;;;;;;;;;;;;;;;;
2023/07/01 07:05:32;;;;;;;21.30;11.30;;;;;;;;;;106901;1259;25396;-81
2023/07/01 07:08:08;;;;;;;18.20;10.40;;;;;;;;;;106925;1259;24181;-85
2023/07/01 07:10:35;;;;;;;18.30;10.50;;;;;;;;;;106993;1276;22765;-82
2023/07/01 07:13:03;;;;;;;20.00;10.50;;;;;;;;;;106934;1276;22528;-81
2023/07/01 07:15:30;;;;;;;17.90;10.50;;;;;;;;;;106960;1276;25461;-82
2023/07/01 07:17:57;;;;;;;18.60;10.50;;;;;;;;;;106952;1259;24346;-87
2023/07/01 07:20:27;;;;;;;18.80;10.60;;;;;;;;;;106916;1276;22617;-84
2023/07/01 07:23:15;;;;;;;18.90;11.40;;;;;;;;;;106884;1276;22523;-83
2023/07/01 07:25:40;;;;;;;17.00;10.00;;;;;;;;;;106951;1276;22521;-81
2023/07/01 07:28:07;;;;;;;19.60;10.90;;;;;;;;;;106912;1256;22525;-85
2023/07/01 07:30:34;;;;;;;17.60;9.50;;;;;;;;;;106946;1276;25213;-82
2023/07/01 07:33:01;;;;;;;17.80;10.20;;;;;;;;;;106926;1276;22482;-81
2023/07/01 07:35:27;;;;;;;18.60;10.60;;;;;;;;;;106880;1276;26723;-80
2023/07/01 07:37:54;;;;;;;18.90;10.60;;;;;;;;;;106779;1253;22771;-84
2023/07/01 07:40:21;;;;;;;19.60;10.50;;;;;;;;;;106900;1276;22575;-80
2023/07/01 07:42:52;;;;;;;19.90;10.70;;;;;;;;;;106908;1276;24363;-86
2023/07/01 07:45:22;;;;;;;18.40;10.70;;;;;;;;;;106948;1276;22632;-82
2023/07/01 07:47:49;;;;;;;18.50;10.60;;;;;;;;;;106913;1276;22558;-80
2023/07/01 07:50:16;;;;;;;17.10;9.80;;;;;;;;;;106901;1274;22536;-84
2023/07/01 07:52:48;;;;;;;18.00;10.20;;;;;;;;;;106872;1276;22527;-81
2023/07/01 07:55:15;;;;;;;17.70;10.00;;;;;;;;;;106941;1276;25374;-82
2023/07/01 07:57:44;;;;;;;19.20;10.50;;;;;;;;;;106929;1276;22743;-79
2023/07/01 08:00:12;;;;;;;19.10;11.40;;;;;;;;;;106908;1260;22520;-82
2023/07/01 08:02:42;;;;;;;19.60;11.10;;;;;;;;;;106946;1276;22629;-86
2023/07/01 08:05:39;;;;;;;20.80;11.10;;;;;;;;;;106888;1276;22533;-82
2023/07/01 08:08:20;;;;;;;18.10;10.50;;;;;;;;;;106936;1259;22517;-85
2023/07/01 08:10:50;;;;;;;16.40;9.90;;;;;;;;;;106932;1262;22523;-81
2023/07/01 08:13:24;;;;;;;18.20;11.00;;;;;;;;;;106969;1276;22523;-84
2023/07/01 08:15:53;;;;;;;18.50;10.80;;;;;;;;;;107011;1276;24226;-84
2023/07/01 08:18:20;;;;;;;18.50;10.70;;;;;;;;;;106909;1276;22520;-81
2023/07/01 08:20:48;;;;;;;20.30;11.60;;;;;;;;;;106654;1262;24230;-83
2023/07/01 08:23:34;;;;;;;19.60;11.50;;;;;;;;;;106862;1276;24279;-85
2023/07/01 08:26:01;;;;;;;18.70;11.40;;;;;;;;;;106908;1276;25357;-82
2023/07/01 08:28:46;;;;;;;19.00;11.10;;;;;;;;;;106864;1276;23969;-86
2023/07/01 08:31:15;;;;;;;17.90;11.00;;;;;;;;;;106897;1276;25213;-81
2023/07/01 08:33:52;;;;;;;18.30;10.90;;;;;;;;;;106938;1276;22630;-79
2023/07/01 08:37:01;;;;;;;18.80;10.80;;;;;;;;;;106885;1276;22523;-85
2023/07/01 08:39:26;;;;;;;18.30;11.00;;;;;;;;;;107010;1253;22527;-80
2023/07/01 08:41:59;;;;;;;19.90;11.00;;;;;;;;;;106889;1276;22578;-80
2023/07/01 08:44:26;;;;;;;19.70;11.80;;;;;;;;;;106933;1276;25457;-84
2023/07/01 08:46:53;;;;;;;19.70;11.10;;;;;;;;;;106964;1276;25204;-80
2023/07/01 08:49:25;;;;;;;20.40;11.70;;;;;;;;;;106934;1276;24334;-80
2023/07/01 08:52:01;;;;;;;17.60;10.90;;;;;;;;;;106928;1262;22520;-80
2023/07/01 08:54:34;;;;;;;18.40;10.30;;;;;;;;;;106944;1276;22598;-86
2023/07/01 08:57:02;;;;;;;18.40;10.60;;;;;;;;;;106950;1276;22632;-83
2023/07/01 08:59:31;;;;;;;17.20;10.10;;;;;;;;;;106923;1276;24253;-80
2023/07/01 09:02:01;;;;;;;16.70;10.20;;;;;;;;;;106941;1262;22516;-85
2023/07/01 09:04:31;;;;;;;16.80;10.10;;;;;;;;;;106823;1275;22529;-81
2023/07/01 09:06:58;;;;;;;19.40;11.60;;;;;;;;;;104666;1275;3099190;-82
2023/07/01 09:09:25;;;;;;;16.20;10.10;;;;;;;;;;106738;1269;23221;-82
2023/07/01 09:12:08;;;;;;;;;;;;;;;;;;;;;
2023/07/01 09:15:10;;;;;;;18.90;11.80;;;;;;;;;;106994;1272;22488;-82
2023/07/01 09:17:38;;;;;;;17.60;10.80;;;;;;;;;;106519;1280;25228;-85
2023/07/01 09:20:11;;;;;;;17.30;10.60;;;;;;;;;;106480;1279;22547;-80
2023/07/01 09:22:47;;;;;;;17.60;11.60;;;;;;;;;;106475;1267;22544;-81
2023/07/01 09:25:44;;;;;;;18.90;10.90;;;;;;;;;;106456;1277;22533;-80
2023/07/01 09:28:21;;;;;;;18.30;11.70;;;;;;;;;;106421;1280;22530;-83
2023/07/01 09:30:54;;;;;;;19.50;12.30;;;;;;;;;;106509;1271;22773;-82
2023/07/01 09:33:29;;;;;;;18.90;11.40;;;;;;;;;;106396;1275;22547;-86
2023/07/01 09:36:02;;;;;;;18.30;11.10;;;;;;;;;;106406;1279;22695;-81
2023/07/01 09:38:34;;;;;;;19.50;11.30;;;;;;;;;;106577;1278;24274;-88
2023/07/01 09:41:14;;;;;;;19.80;12.50;;;;;;;;;;106437;1265;25185;-83
2023/07/01 09:43:44;;;;;;;18.50;12.00;;;;;;;;;;106265;1275;26474;-84
2023/07/01 09:46:12;;;;;;;18.10;10.80;;;;;;;;;;106452;1281;24420;-82
2023/07/01 09:48:48;;;;;;;18.10;11.30;;;;;;;;;;106573;1275;25282;-80
2023/07/01 09:51:15;;;;;;;16.90;10.80;;;;;;;;;;106481;1275;24292;-83
2023/07/01 09:53:43;;;;;;;17.60;10.80;;;;;;;;;;106714;1268;22632;-81
2023/07/01 09:56:15;;;;;;;17.40;11.20;;;;;;;;;;106982;1268;25318;-81
2023/07/01 09:58:45;;;;;;;16.80;11.40;;;;;;;;;;106986;1269;22651;-83
2023/07/01 10:01:16;;;;;;;18.20;11.90;;;;;;;;;;106945;1253;23858;-83
2023/07/01 10:03:49;;;;;;;17.60;11.90;;;;;;;;;;106737;1275;24237;-79
2023/07/01 10:06:16;;;;;;;18.70;11.40;;;;;;;;;;106705;1270;22513;-82
2023/07/01 10:08:43;;;;;;;17.00;10.30;;;;;;;;;;106858;1275;23908;-82
2023/07/01 10:11:10;;;;;;;18.00;11.30;;;;;;;;;;106945;1268;25220;-81
2023/07/01 10:13:40;;;;;;;19.00;11.80;;;;;;;;;;107195;1256;24636;-80
2023/07/01 10:16:10;;;;;;;17.10;11.20;;;;;;;;;;106948;1270;24644;-85
2023/07/01 10:18:40;;;;;;;18.60;11.80;;;;;;;;;;106863;1269;25460;-83
2023/07/01 10:21:22;;;;;;;18.00;11.30;;;;;;;;;;106629;1272;25450;-85
2023/07/01 10:23:52;;;;;;;17.10;10.80;;;;;;;;;;107079;1259;24723;-88
2023/07/01 10:26:47;;;;;;;16.10;10.30;;;;;;;;;;107024;1269;22527;-82
2023/07/01 10:29:33;;;;;;;17.10;11.20;;;;;;;;;;107016;1270;24244;-83
2023/07/01 10:32:09;;;;;;;16.60;10.70;;;;;;;;;;107004;1269;26490;-80
2023/07/01 10:34:55;;;;;;;18.70;10.40;;;;;;;;;;107171;1269;22520;-85
2023/07/01 10:37:22;;;;;;;15.50;10.80;;;;;;;;;;106955;1275;22523;-82
2023/07/01 10:39:50;;;;;;;20.10;10.80;;;;;;;;;;106915;1275;24277;-83
2023/07/01 10:42:36;;;;;;;16.70;10.70;;;;;;;;;;106867;1258;22608;-81
2023/07/01 10:45:12;;;;;;;16.10;10.80;;;;;;;;;;106939;1275;22544;-82
2023/07/01 10:47:43;;;;;;;15.70;10.90;;;;;;;;;;106972;1269;25470;-87
2023/07/01 10:50:12;;;;;;;16.70;10.80;;;;;;;;;;107010;1269;22522;-81
2023/07/01 10:53:03;;;;;;;17.50;11.10;;;;;;;;;;107218;1257;25463;-83
2023/07/01 10:55:44;;;;;;;15.90;10.20;;;;;;;;;;106982;1271;22519;-82
2023/07/01 10:58:21;;;;;;;18.20;10.70;;;;;;;;;;107099;1268;24196;-85
2023/07/01 11:01:13;;;;;;;17.70;11.30;;;;;;;;;;106946;1269;22520;-88
2023/07/01 11:03:43;;;;;;;17.60;11.10;;;;;;;;;;106578;1263;24272;-85
2023/07/01 11:06:10;;;;;;;18.10;11.00;;;;;;;;;;106576;1281;25284;-81
2023/07/01 11:08:50;;;;;;;17.80;11.00;;;;;;;;;;106561;1276;25186;-84
2023/07/01 11:11:19;;;;;;;16.70;10.20;;;;;;;;;;106393;1281;25602;-81
2023/07/01 11:14:05;;;;;;;16.80;10.40;;;;;;;;;;106242;1265;22555;-81
2023/07/01 11:16:33;;;;;;;17.10;10.50;;;;;;;;;;106445;1278;22528;-81
2023/07/01 11:19:01;;;;;;;17.50;11.00;;;;;;;;;;106437;1275;22537;-85
2023/07/01 11:21:29;;;;;;;16.40;10.90;;;;;;;;;;106495;1280;22533;-81
2023/07/01 11:23:58;;;;;;;16.90;10.50;;;;;;;;;;106361;1275;24325;-82
2023/07/01 11:26:28;;;;;;;17.50;10.20;;;;;;;;;;106472;1271;22530;-79
2023/07/01 11:28:55;;;;;;;17.90;11.00;;;;;;;;;;106359;1275;22532;-81
2023/07/01 11:31:24;;;;;;;16.10;10.80;;;;;;;;;;106266;1275;24333;-84
2023/07/01 11:33:55;;;;;;;15.80;10.20;;;;;;;;;;106461;1266;24229;-82
2023/07/01 11:36:41;;;;;;;18.20;10.50;;;;;;;;;;106476;1279;22534;-83
2023/07/01 11:39:09;;;;;;;15.20;10.30;;;;;;;;;;106423;1281;22546;-85
2023/07/01 11:41:37;;;;;;;16.80;9.80;;;;;;;;;;106763;1275;22531;-82
2023/07/01 11:44:09;;;;;;;15.10;10.30;;;;;;;;;;107066;1256;25401;-81
2023/07/01 11:46:37;;;;;;;16.30;10.70;;;;;;;;;;106845;1253;22525;-81
2023/07/01 11:49:15;;;;;;;16.90;10.10;;;;;;;;;;106805;1270;25460;-81
2023/07/01 11:51:43;;;;;;;17.80;10.80;;;;;;;;;;107075;1270;25346;-82
2023/07/01 11:54:14;;;;;;;16.50;10.40;;;;;;;;;;106925;1253;24222;-83
2023/07/01 11:56:44;;;;;;;17.50;10.20;;;;;;;;;;106910;1269;23119;-80
2023/07/01 11:59:32;;;;;;;18.60;11.10;;;;;;;;;;106874;1275;22523;-82
2023/07/01 12:01:59;;;;;;;16.10;10.40;;;;;;;;;;107046;1269;22533;-85
2023/07/01 12:04:28;;;;;;;14.60;8.90;;;;;;;;;;107117;1267;22520;-84
2023/07/01 12:07:24;;;;;;;13.60;9.10;;;;;;;;;;106789;1269;23069;-81
2023/07/01 12:09:52;;;;;;;15.50;9.00;;;;;;;;;;106887;1270;22532;-84
2023/07/01 12:12:31;;;;;;;14.10;8.80;;;;;;;;;;106963;1270;25377;-80
2023/07/01 12:15:21;;;;;;;14.50;8.80;;;;;;;;;;107010;1269;22483;-82
2023/07/01 12:17:51;;;;;;;11.80;6.70;;;;;;;;;;106601;1275;24429;-86
2023/07/01 12:20:48;;;;;;;11.90;7.00;;;;;;;;;;107077;1276;25366;-84
2023/07/01 12:23:25;;;;;;;10.90;6.30;;;;;;;;;;106994;1276;22749;-82
2023/07/01 12:26:12;;;;;;;;;;;;;;;;;;;;;
2023/07/01 12:28:49;;;;;;;10.50;6.60;;;;;;;;;;107012;1270;22523;-81
2023/07/01 12:31:16;;;;;;;11.00;7.10;;;;;;;;;;106897;1268;26577;-79
2023/07/01 12:33:46;;;;;;;10.80;6.60;;;;;;;;;;106962;1272;22588;-80
2023/07/01 12:36:16;;;;;;;10.60;6.80;;;;;;;;;;107048;1258;22520;-82
2023/07/01 12:38:43;;;;;;;11.80;7.30;;;;;;;;;;106988;1273;24435;-80
2023/07/01 12:41:13;;;;;;;11.40;7.00;;;;;;;;;;107065;1275;25233;-84
2023/07/01 12:43:40;;;;;;;10.80;6.60;;;;;;;;;;106997;1273;22562;-81
2023/07/01 12:46:08;;;;;;;11.60;6.40;;;;;;;;;;107042;1267;24192;-83
2023/07/01 12:48:42;;;;;;;12.30;6.80;;;;;;;;;;106902;1270;22559;-80
2023/07/01 12:51:12;;;;;;;12.00;6.80;;;;;;;;;;107089;1270;22521;-86
2023/07/01 12:53:47;;;;;;;10.50;6.60;;;;;;;;;;106856;1269;22580;-81
2023/07/01 12:56:14;;;;;;;12.10;6.80;;;;;;;;;;106771;1259;22673;-81
2023/07/01 12:58:51;;;;;;;10.50;6.50;;;;;;;;;;106919;1269;24227;-82
2023/07/01 13:01:27;;;;;;;11.10;6.80;;;;;;;;;;106887;1269;23871;-80
2023/07/01 13:03:57;;;;;;;11.60;7.00;;;;;;;;;;106651;1276;22530;-80
2023/07/01 13:06:29;;;;;;;11.80;7.10;;;;;;;;;;106919;1276;25426;-81
2023/07/01 13:09:00;;;;;;;11.80;6.20;;;;;;;;;;107227;1276;25376;-83
2023/07/01 13:11:30;;;;;;;10.10;6.90;;;;;;;;;;107109;1276;22550;-82
2023/07/01 13:14:12;;;;;;;10.60;5.80;;;;;;;;;;106966;1276;22528;-85
2023/07/01 13:16:40;;;;;;;10.20;5.90;;;;;;;;;;106936;1259;22534;-86
2023/07/01 13:19:14;;;;;;;10.80;6.30;;;;;;;;;;106984;1275;22529;-85
2023/07/01 13:21:53;;;;;;;9.40;5.80;;;;;;;;;;107000;1276;22524;-79
2023/07/01 13:24:27;;;;;;;9.80;5.90;;;;;;;;;;107050;1276;22522;-87
2023/07/01 13:27:21;;;;;;;9.50;5.60;;;;;;;;;;106957;1267;25203;-82
2023/07/01 13:29:53;;;;;;;9.10;5.90;;;;;;;;;;107081;1276;22767;-86
2023/07/01 13:32:23;;;;;;;10.30;5.80;;;;;;;;;;106867;1270;26441;-82
2023/07/01 13:34:51;;;;;;;10.60;5.40;;;;;;;;;;107005;1271;25337;-81
2023/07/01 13:37:19;;;;;;;9.10;5.40;;;;;;;;;;106926;1264;23866;-81
2023/07/01 13:39:47;;;;;;;8.50;4.50;;;;;;;;;;106806;1270;22523;-82
2023/07/01 13:42:27;;;;;;;9.70;4.60;;;;;;;;;;106972;1269;22538;-81
2023/07/01 13:44:56;;;;;;;8.10;4.30;;;;;;;;;;107018;1270;22834;-82
2023/07/01 13:47:42;;;;;;;8.60;4.70;;;;;;;;;;106917;1267;25357;-82
2023/07/01 13:50:13;;;;;;;7.70;4.10;;;;;;;;;;106902;1269;22986;-82
2023/07/01 13:52:41;;;;;;;7.80;4.00;;;;;;;;;;106967;1276;24404;-87
2023/07/01 13:55:18;;;;;;;8.70;4.30;;;;;;;;;;107081;1272;22534;-83
2023/07/01 13:57:51;;;;;;;7.60;3.40;;;;;;;;;;107066;1264;22486;-79
2023/07/01 14:00:35;;;;;;;7.50;3.40;;;;;;;;;;106899;1269;25265;-82
2023/07/01 14:03:03;;;;;;;7.30;3.20;;;;;;;;;;106827;1276;22573;-85
2023/07/01 14:05:31;;;;;;;6.40;2.90;;;;;;;;;;106879;1263;22520;-79
2023/07/01 14:07:58;;;;;;;7.20;3.30;;;;;;;;;;106972;1259;22528;-84
2023/07/01 14:10:29;;;;;;;7.50;3.20;;;;;;;;;;106898;1274;24191;-80
2023/07/01 14:12:57;;;;;;;6.70;3.20;;;;;;;;;;106921;1276;24195;-84
2023/07/01 14:15:40;;;;;;;8.10;2.90;;;;;;;;;;107017;1276;22521;-83
2023/07/01 14:18:28;;;;;;;8.20;3.40;;;;;;;;;;106880;1270;23128;-83
2023/07/01 14:20:58;;;;;;;8.10;4.00;;;;;;;;;;106884;1273;22535;-79
2023/07/01 14:23:31;;;;;;;6.80;3.30;;;;;;;;;;106710;1275;22488;-80
2023/07/01 14:25:58;;;;;;;7.80;3.20;;;;;;;;;;106948;1276;24234;-83
2023/07/01 14:28:25;;;;;;;5.90;2.80;;;;;;;;;;106973;1267;23889;-79
2023/07/01 14:30:52;;;;;;;6.80;3.20;;;;;;;;;;106802;1273;22576;-83
2023/07/01 14:33:20;;;;;;;6.80;3.00;;;;;;;;;;106854;1276;22736;-83
2023/07/01 14:35:47;;;;;;;7.50;3.40;;;;;;;;;;106889;1275;22515;-83
2023/07/01 14:38:16;;;;;;;6.70;3.00;;;;;;;;;;106912;1258;25346;-85
2023/07/01 14:40:43;;;;;;;6.50;3.20;;;;;;;;;;106953;1276;22517;-84
2023/07/01 14:43:12;;;;;;;8.30;3.80;;;;;;;;;;107125;1275;25278;-84
2023/07/01 14:45:41;;;;;;;7.20;3.50;;;;;;;;;;106924;1273;22606;-85